sensor_id;sensor_type;location;lat;lon;timestamp;pressure;altitude;pressure_sealevel;temperature;humidity
21980;BME280;11154;48.558;9.234;2022-09-12T00:00:13;97685.13;;;15.24;100.00
21980;BME280;11154;48.558;9.234;2022-09-12T00:02:16;97689.81;;;15.22;100.00
21980;BME280;11154;48.558;9.234;2022-09-12T00:04:17;97682.69;;;15.15;100.00
21980;BME280;11154;48.558;9.234;2022-09-12T00:06:21;97684.53;;;15.14;100.00
21980;BME280;11154;48.558;9.234;2022-09-12T00:08:23;97682.03;;;15.13;100.00
21980;BME280;11154;48.558;9.234;2022-09-12T00:10:25;97680.28;;;15.06;100.00
21980;BME280;11154;48.558;9.234;2022-09-12T00:12:28;97673.00;;;15.00;100.00
21980;BME280;11154;48.558;9.234;2022-09-12T00:14:30;97676.22;;;14.95;100.00
21980;BME280;11154;48.558;9.234;2022-09-12T00:16:33;97684.72;;;14.99;100.00
21980;BME280;11154;48.558;9.234;2022-09-12T00:18:35;97675.56;;;14.93;100.00
21980;BME280;11154;48.558;9.234;2022-09-12T00:20:40;97672.63;;;14.88;100.00
21980;BME280;11154;48.558;9.234;2022-09-12T00:22:42;97677.13;;;14.88;100.00
21980;BME280;11154;48.558;9.234;2022-09-12T00:24:44;97678.16;;;14.87;100.00
21980;BME280;11154;48.558;9.234;2022-09-12T00:26:46;97674.44;;;14.88;100.00
21980;BME280;11154;48.558;9.234;2022-09-12T00:28:49;97668.28;;;14.87;100.00
21980;BME280;11154;48.558;9.234;2022-09-12T00:30:50;97675.19;;;14.82;100.00
21980;BME280;11154;48.558;9.234;2022-09-12T00:32:52;97670.88;;;14.81;100.00
21980;BME280;11154;48.558;9.234;2022-09-12T00:34:54;97668.81;;;14.83;100.00
21980;BME280;11154;48.558;9.234;2022-09-12T00:36:55;97662.06;;;14.72;100.00
21980;BME280;11154;48.558;9.234;2022-09-12T00:38:58;97656.56;;;14.74;100.00
21980;BME280;11154;48.558;9.234;2022-09-12T00:40:59;97658.97;;;14.83;100.00
21980;BME280;11154;48.558;9.234;2022-09-12T00:43:01;97662.25;;;14.85;100.00
21980;BME280;11154;48.558;9.234;2022-09-12T00:45:05;97656.09;;;14.85;100.00
21980;BME280;11154;48.558;9.234;2022-09-12T00:47:13;97659.44;;;14.87;100.00
21980;BME280;11154;48.558;9.234;2022-09-12T00:49:22;97662.47;;;14.84;100.00
21980;BME280;11154;48.558;9.234;2022-09-12T00:51:27;97659.97;;;14.82;100.00
21980;BME280;11154;48.558;9.234;2022-09-12T00:53:30;97654.44;;;14.84;100.00
21980;BME280;11154;48.558;9.234;2022-09-12T00:55:35;97657.28;;;14.82;100.00
21980;BME280;11154;48.558;9.234;2022-09-12T00:57:41;97663.38;;;14.76;100.00
21980;BME280;11154;48.558;9.234;2022-09-12T00:59:48;97664.66;;;14.80;100.00
21980;BME280;11154;48.558;9.234;2022-09-12T01:01:52;97657.50;;;14.81;100.00
21980;BME280;11154;48.558;9.234;2022-09-12T01:03:54;97659.31;;;14.80;100.00
21980;BME280;11154;48.558;9.234;2022-09-12T01:06:00;97663.53;;;14.75;100.00
21980;BME280;11154;48.558;9.234;2022-09-12T01:08:05;97656.25;;;14.69;100.00
21980;BME280;11154;48.558;9.234;2022-09-12T01:10:08;97657.56;;;14.73;100.00
21980;BME280;11154;48.558;9.234;2022-09-12T01:12:11;97640.75;;;14.79;100.00
21980;BME280;11154;48.558;9.234;2022-09-12T01:14:14;97640.19;;;14.69;100.00
21980;BME280;11154;48.558;9.234;2022-09-12T01:16:16;97640.50;;;14.74;100.00
21980;BME280;11154;48.558;9.234;2022-09-12T01:18:27;97637.81;;;14.74;100.00
21980;BME280;11154;48.558;9.234;2022-09-12T01:23:43;97639.28;;;14.62;100.00
21980;BME280;11154;48.558;9.234;2022-09-12T01:26:01;97636.78;;;14.60;100.00
21980;BME280;11154;48.558;9.234;2022-09-12T01:28:27;97642.13;;;14.60;100.00
21980;BME280;11154;48.558;9.234;2022-09-12T01:30:46;97636.16;;;14.58;100.00
21980;BME280;11154;48.558;9.234;2022-09-12T01:33:00;97636.69;;;14.54;100.00
21980;BME280;11154;48.558;9.234;2022-09-12T01:35:11;97632.34;;;14.53;100.00
21980;BME280;11154;48.558;9.234;2022-09-12T01:37:26;97639.19;;;14.84;100.00
21980;BME280;11154;48.558;9.234;2022-09-12T01:39:39;97635.22;;;14.95;100.00
21980;BME280;11154;48.558;9.234;2022-09-12T01:41:50;97642.34;;;15.02;100.00
21980;BME280;11154;48.558;9.234;2022-09-12T01:44:01;97641.13;;;15.05;100.00
21980;BME280;11154;48.558;9.234;2022-09-12T01:46:11;97644.88;;;15.10;100.00
21980;BME280;11154;48.558;9.234;2022-09-12T01:48:18;97633.09;;;15.05;100.00
21980;BME280;11154;48.558;9.234;2022-09-12T01:50:22;97628.00;;;15.10;100.00
21980;BME280;11154;48.558;9.234;2022-09-12T01:52:30;97629.88;;;15.09;100.00
21980;BME280;11154;48.558;9.234;2022-09-12T01:54:37;97628.91;;;15.16;100.00
21980;BME280;11154;48.558;9.234;2022-09-12T01:56:42;97628.53;;;15.19;100.00
21980;BME280;11154;48.558;9.234;2022-09-12T01:58:49;97626.91;;;15.18;100.00
21980;BME280;11154;48.558;9.234;2022-09-12T02:00:57;97621.16;;;15.21;100.00
21980;BME280;11154;48.558;9.234;2022-09-12T02:03:07;97610.09;;;15.24;100.00
21980;BME280;11154;48.558;9.234;2022-09-12T02:05:15;97614.34;;;15.05;100.00
21980;BME280;11154;48.558;9.234;2022-09-12T02:07:19;97611.69;;;14.76;100.00
21980;BME280;11154;48.558;9.234;2022-09-12T02:09:26;97604.03;;;14.58;100.00
21980;BME280;11154;48.558;9.234;2022-09-12T02:11:30;97605.59;;;14.53;100.00
21980;BME280;11154;48.558;9.234;2022-09-12T02:13:37;97609.81;;;14.47;100.00
21980;BME280;11154;48.558;9.234;2022-09-12T02:15:43;97610.00;;;14.46;100.00
21980;BME280;11154;48.558;9.234;2022-09-12T02:17:49;97606.88;;;14.43;100.00
21980;BME280;11154;48.558;9.234;2022-09-12T02:19:55;97608.59;;;14.36;100.00
21980;BME280;11154;48.558;9.234;2022-09-12T02:21:59;97609.63;;;14.35;100.00
21980;BME280;11154;48.558;9.234;2022-09-12T02:24:03;97607.94;;;14.34;100.00
21980;BME280;11154;48.558;9.234;2022-09-12T02:26:11;97598.09;;;14.34;100.00
21980;BME280;11154;48.558;9.234;2022-09-12T02:28:16;97596.44;;;14.33;100.00
21980;BME280;11154;48.558;9.234;2022-09-12T02:30:19;97605.19;;;14.27;100.00
21980;BME280;11154;48.558;9.234;2022-09-12T02:32:27;97603.44;;;14.20;100.00
21980;BME280;11154;48.558;9.234;2022-09-12T02:34:40;97600.16;;;14.10;100.00
21980;BME280;11154;48.558;9.234;2022-09-12T02:36:49;97609.00;;;14.47;100.00
21980;BME280;11154;48.558;9.234;2022-09-12T02:38:54;97605.13;;;14.64;100.00
21980;BME280;11154;48.558;9.234;2022-09-12T02:40:56;97607.53;;;14.73;100.00
21980;BME280;11154;48.558;9.234;2022-09-12T02:42:58;97604.09;;;14.79;100.00
21980;BME280;11154;48.558;9.234;2022-09-12T02:45:00;97603.38;;;14.85;100.00
21980;BME280;11154;48.558;9.234;2022-09-12T02:47:06;97598.75;;;14.94;100.00
21980;BME280;11154;48.558;9.234;2022-09-12T02:49:11;97595.34;;;15.00;100.00
21980;BME280;11154;48.558;9.234;2022-09-12T02:51:13;97600.97;;;15.05;100.00
21980;BME280;11154;48.558;9.234;2022-09-12T02:53:17;97592.25;;;15.03;100.00
21980;BME280;11154;48.558;9.234;2022-09-12T02:55:19;97596.06;;;15.08;100.00
21980;BME280;11154;48.558;9.234;2022-09-12T02:57:24;97594.19;;;15.09;100.00
21980;BME280;11154;48.558;9.234;2022-09-12T02:59:26;97596.69;;;15.10;100.00
21980;BME280;11154;48.558;9.234;2022-09-12T03:01:37;97596.78;;;15.16;100.00
21980;BME280;11154;48.558;9.234;2022-09-12T03:03:58;97586.44;;;15.28;100.00
21980;BME280;11154;48.558;9.234;2022-09-12T03:06:12;97588.41;;;14.91;100.00
21980;BME280;11154;48.558;9.234;2022-09-12T03:08:33;97583.97;;;14.69;100.00
21980;BME280;11154;48.558;9.234;2022-09-12T03:10:57;97576.63;;;14.56;100.00
21980;BME280;11154;48.558;9.234;2022-09-12T03:13:07;97584.19;;;14.53;100.00
21980;BME280;11154;48.558;9.234;2022-09-12T03:15:25;97583.44;;;14.44;100.00
21980;BME280;11154;48.558;9.234;2022-09-12T03:17:35;97588.59;;;14.46;100.00
21980;BME280;11154;48.558;9.234;2022-09-12T03:19:51;97579.00;;;14.37;100.00
21980;BME280;11154;48.558;9.234;2022-09-12T03:22:02;97586.94;;;14.31;100.00
21980;BME280;11154;48.558;9.234;2022-09-12T03:24:15;97582.97;;;14.27;100.00
21980;BME280;11154;48.558;9.234;2022-09-12T03:26:22;97585.72;;;14.19;100.00
21980;BME280;11154;48.558;9.234;2022-09-12T03:28:27;97588.19;;;14.20;100.00
21980;BME280;11154;48.558;9.234;2022-09-12T03:30:29;97586.25;;;14.14;100.00
21980;BME280;11154;48.558;9.234;2022-09-12T03:32:42;97586.94;;;14.08;100.00
21980;BME280;11154;48.558;9.234;2022-09-12T03:34:44;97592.03;;;14.03;100.00
21980;BME280;11154;48.558;9.234;2022-09-12T03:36:46;97597.72;;;14.37;100.00
21980;BME280;11154;48.558;9.234;2022-09-12T03:38:48;97595.44;;;14.48;100.00
21980;BME280;11154;48.558;9.234;2022-09-12T03:40:51;97596.34;;;14.55;100.00
21980;BME280;11154;48.558;9.234;2022-09-12T03:42:53;97593.13;;;14.60;100.00
21980;BME280;11154;48.558;9.234;2022-09-12T03:44:54;97599.78;;;14.64;100.00
21980;BME280;11154;48.558;9.234;2022-09-12T03:46:56;97597.38;;;14.69;100.00
21980;BME280;11154;48.558;9.234;2022-09-12T03:48:57;97601.72;;;14.70;100.00
21980;BME280;11154;48.558;9.234;2022-09-12T03:51:00;97604.03;;;14.73;100.00
21980;BME280;11154;48.558;9.234;2022-09-12T03:53:02;97602.81;;;14.75;100.00
21980;BME280;11154;48.558;9.234;2022-09-12T03:55:05;97599.28;;;14.75;100.00
21980;BME280;11154;48.558;9.234;2022-09-12T03:57:08;97597.28;;;14.77;100.00
21980;BME280;11154;48.558;9.234;2022-09-12T03:59:09;97590.56;;;14.81;100.00
21980;BME280;11154;48.558;9.234;2022-09-12T04:01:12;97595.31;;;14.85;100.00
21980;BME280;11154;48.558;9.234;2022-09-12T04:03:15;97597.09;;;14.93;100.00
21980;BME280;11154;48.558;9.234;2022-09-12T04:05:18;97584.38;;;14.66;100.00
21980;BME280;11154;48.558;9.234;2022-09-12T04:07:20;97584.66;;;14.42;100.00
21980;BME280;11154;48.558;9.234;2022-09-12T04:09:21;97581.94;;;14.28;100.00
21980;BME280;11154;48.558;9.234;2022-09-12T04:11:23;97582.03;;;14.20;100.00
21980;BME280;11154;48.558;9.234;2022-09-12T04:13:26;97578.03;;;14.16;100.00
21980;BME280;11154;48.558;9.234;2022-09-12T04:15:28;97578.44;;;14.13;100.00
21980;BME280;11154;48.558;9.234;2022-09-12T04:17:29;97581.78;;;14.07;100.00
21980;BME280;11154;48.558;9.234;2022-09-12T04:19:31;97580.78;;;14.08;100.00
21980;BME280;11154;48.558;9.234;2022-09-12T04:21:33;97584.81;;;14.04;100.00
21980;BME280;11154;48.558;9.234;2022-09-12T04:23:34;97584.00;;;14.03;100.00
21980;BME280;11154;48.558;9.234;2022-09-12T04:25:36;97585.19;;;14.01;100.00
21980;BME280;11154;48.558;9.234;2022-09-12T04:27:38;97589.41;;;13.95;100.00
21980;BME280;11154;48.558;9.234;2022-09-12T04:29:41;97590.41;;;13.94;100.00
21980;BME280;11154;48.558;9.234;2022-09-12T04:31:43;97589.94;;;13.91;100.00
21980;BME280;11154;48.558;9.234;2022-09-12T04:33:45;97586.16;;;13.85;100.00
21980;BME280;11154;48.558;9.234;2022-09-12T04:35:47;97593.31;;;14.07;100.00
21980;BME280;11154;48.558;9.234;2022-09-12T04:37:49;97595.16;;;14.29;100.00
21980;BME280;11154;48.558;9.234;2022-09-12T04:39:51;97592.75;;;14.34;100.00
21980;BME280;11154;48.558;9.234;2022-09-12T04:41:56;97593.50;;;14.43;100.00
21980;BME280;11154;48.558;9.234;2022-09-12T04:44:00;97594.63;;;14.48;100.00
21980;BME280;11154;48.558;9.234;2022-09-12T04:46:05;97600.03;;;14.54;100.00
21980;BME280;11154;48.558;9.234;2022-09-12T04:48:07;97597.56;;;14.53;100.00
21980;BME280;11154;48.558;9.234;2022-09-12T04:50:08;97596.00;;;14.58;100.00
21980;BME280;11154;48.558;9.234;2022-09-12T04:52:10;97597.47;;;14.61;100.00
21980;BME280;11154;48.558;9.234;2022-09-12T04:54:13;97600.16;;;14.61;100.00
21980;BME280;11154;48.558;9.234;2022-09-12T04:56:16;97601.81;;;14.62;100.00
21980;BME280;11154;48.558;9.234;2022-09-12T04:58:18;97600.50;;;14.58;100.00
21980;BME280;11154;48.558;9.234;2022-09-12T05:00:19;97606.97;;;14.63;100.00
21980;BME280;11154;48.558;9.234;2022-09-12T05:02:22;97607.81;;;14.64;100.00
21980;BME280;11154;48.558;9.234;2022-09-12T05:04:24;97605.59;;;14.67;100.00
21980;BME280;11154;48.558;9.234;2022-09-12T05:06:27;97591.00;;;14.27;100.00
21980;BME280;11154;48.558;9.234;2022-09-12T05:08:29;97597.66;;;14.08;100.00
21980;BME280;11154;48.558;9.234;2022-09-12T05:10:32;97589.34;;;14.03;100.00
21980;BME280;11154;48.558;9.234;2022-09-12T05:12:34;97591.75;;;13.98;100.00
21980;BME280;11154;48.558;9.234;2022-09-12T05:14:36;97592.09;;;13.95;100.00
21980;BME280;11154;48.558;9.234;2022-09-12T05:16:38;97589.13;;;13.90;100.00
21980;BME280;11154;48.558;9.234;2022-09-12T05:18:42;97589.13;;;13.90;100.00
21980;BME280;11154;48.558;9.234;2022-09-12T05:20:44;97596.50;;;13.88;100.00
21980;BME280;11154;48.558;9.234;2022-09-12T05:22:46;97596.97;;;13.92;100.00
21980;BME280;11154;48.558;9.234;2022-09-12T05:24:47;97588.47;;;13.88;100.00
21980;BME280;11154;48.558;9.234;2022-09-12T05:26:49;97600.81;;;13.89;100.00
21980;BME280;11154;48.558;9.234;2022-09-12T05:28:51;97597.78;;;13.92;100.00
21980;BME280;11154;48.558;9.234;2022-09-12T05:30:59;97593.81;;;13.88;100.00
21980;BME280;11154;48.558;9.234;2022-09-12T05:33:01;97602.22;;;13.85;100.00
21980;BME280;11154;48.558;9.234;2022-09-12T05:35:04;97614.53;;;13.86;100.00
21980;BME280;11154;48.558;9.234;2022-09-12T05:37:06;97612.28;;;14.20;100.00
21980;BME280;11154;48.558;9.234;2022-09-12T05:39:08;97611.09;;;14.37;100.00
21980;BME280;11154;48.558;9.234;2022-09-12T05:41:11;97610.66;;;14.48;100.00
21980;BME280;11154;48.558;9.234;2022-09-12T05:43:13;97611.75;;;14.53;100.00
21980;BME280;11154;48.558;9.234;2022-09-12T05:45:15;97612.88;;;14.59;100.00
21980;BME280;11154;48.558;9.234;2022-09-12T05:47:16;97616.03;;;14.62;100.00
21980;BME280;11154;48.558;9.234;2022-09-12T05:49:18;97615.84;;;14.64;100.00
21980;BME280;11154;48.558;9.234;2022-09-12T05:51:24;97609.28;;;14.66;100.00
21980;BME280;11154;48.558;9.234;2022-09-12T05:53:26;97608.72;;;14.71;100.00
21980;BME280;11154;48.558;9.234;2022-09-12T05:55:27;97605.69;;;14.74;100.00
21980;BME280;11154;48.558;9.234;2022-09-12T05:57:31;97604.03;;;14.73;100.00
21980;BME280;11154;48.558;9.234;2022-09-12T05:59:33;97606.72;;;14.73;100.00
21980;BME280;11154;48.558;9.234;2022-09-12T06:01:34;97610.66;;;14.77;100.00
21980;BME280;11154;48.558;9.234;2022-09-12T06:03:40;97607.31;;;14.75;100.00
21980;BME280;11154;48.558;9.234;2022-09-12T06:05:42;97607.06;;;14.55;100.00
21980;BME280;11154;48.558;9.234;2022-09-12T06:07:46;97601.44;;;14.36;100.00
21980;BME280;11154;48.558;9.234;2022-09-12T06:09:47;97603.34;;;14.28;100.00
21980;BME280;11154;48.558;9.234;2022-09-12T06:11:49;97599.84;;;14.27;100.00
21980;BME280;11154;48.558;9.234;2022-09-12T06:13:51;97603.34;;;14.28;100.00
21980;BME280;11154;48.558;9.234;2022-09-12T06:15:53;97608.22;;;14.24;100.00
21980;BME280;11154;48.558;9.234;2022-09-12T06:17:54;97608.59;;;14.21;100.00
21980;BME280;11154;48.558;9.234;2022-09-12T06:19:56;97607.31;;;14.17;100.00
21980;BME280;11154;48.558;9.234;2022-09-12T06:21:58;97599.56;;;14.22;100.00
21980;BME280;11154;48.558;9.234;2022-09-12T06:24:01;97599.19;;;14.25;100.00
21980;BME280;11154;48.558;9.234;2022-09-12T06:26:03;97603.19;;;14.29;100.00
21980;BME280;11154;48.558;9.234;2022-09-12T06:28:05;97594.22;;;14.22;100.00
21980;BME280;11154;48.558;9.234;2022-09-12T06:30:08;97598.72;;;14.22;100.00
21980;BME280;11154;48.558;9.234;2022-09-12T06:32:10;97589.22;;;14.19;100.00
21980;BME280;11154;48.558;9.234;2022-09-12T06:34:13;97596.22;;;14.20;100.00
21980;BME280;11154;48.558;9.234;2022-09-12T06:36:17;97608.63;;;14.50;100.00
21980;BME280;11154;48.558;9.234;2022-09-12T06:38:19;97608.06;;;14.69;100.00
21980;BME280;11154;48.558;9.234;2022-09-12T06:40:22;97604.56;;;14.83;100.00
21980;BME280;11154;48.558;9.234;2022-09-12T06:42:23;97608.81;;;14.92;100.00
21980;BME280;11154;48.558;9.234;2022-09-12T06:44:25;97614.25;;;14.98;100.00
21980;BME280;11154;48.558;9.234;2022-09-12T06:46:27;97612.28;;;15.07;100.00
21980;BME280;11154;48.558;9.234;2022-09-12T06:48:30;97617.00;;;15.19;100.00
21980;BME280;11154;48.558;9.234;2022-09-12T06:50:32;97605.91;;;15.22;100.00
21980;BME280;11154;48.558;9.234;2022-09-12T06:52:33;97606.78;;;15.22;100.00
21980;BME280;11154;48.558;9.234;2022-09-12T06:54:35;97608.91;;;15.27;100.00
21980;BME280;11154;48.558;9.234;2022-09-12T06:56:38;97611.19;;;15.30;100.00
21980;BME280;11154;48.558;9.234;2022-09-12T06:58:40;97609.34;;;15.30;100.00
21980;BME280;11154;48.558;9.234;2022-09-12T07:00:42;97613.03;;;15.29;100.00
21980;BME280;11154;48.558;9.234;2022-09-12T07:02:44;97622.19;;;15.35;100.00
21980;BME280;11154;48.558;9.234;2022-09-12T07:04:46;97606.53;;;15.38;100.00
21980;BME280;11154;48.558;9.234;2022-09-12T07:06:49;97603.25;;;15.08;100.00
21980;BME280;11154;48.558;9.234;2022-09-12T07:08:50;97609.75;;;14.99;100.00
21980;BME280;11154;48.558;9.234;2022-09-12T07:10:52;97596.72;;;14.96;100.00
21980;BME280;11154;48.558;9.234;2022-09-12T07:12:55;97612.22;;;15.00;100.00
21980;BME280;11154;48.558;9.234;2022-09-12T07:14:58;97606.88;;;15.00;100.00
21980;BME280;11154;48.558;9.234;2022-09-12T07:17:00;97604.75;;;14.96;100.00
21980;BME280;11154;48.558;9.234;2022-09-12T07:19:03;97603.19;;;14.87;100.00
21980;BME280;11154;48.558;9.234;2022-09-12T07:21:07;97607.06;;;14.84;100.00
21980;BME280;11154;48.558;9.234;2022-09-12T07:23:10;97591.84;;;14.85;100.00
21980;BME280;11154;48.558;9.234;2022-09-12T07:25:11;97601.16;;;14.89;100.00
21980;BME280;11154;48.558;9.234;2022-09-12T07:27:13;97596.25;;;14.92;100.00
21980;BME280;11154;48.558;9.234;2022-09-12T07:29:16;97594.22;;;14.94;100.00
21980;BME280;11154;48.558;9.234;2022-09-12T07:31:19;97602.63;;;14.91;100.00
21980;BME280;11154;48.558;9.234;2022-09-12T07:33:23;97586.94;;;14.88;100.00
21980;BME280;11154;48.558;9.234;2022-09-12T07:35:27;97597.84;;;14.87;100.00
21980;BME280;11154;48.558;9.234;2022-09-12T07:37:29;97593.84;;;14.83;100.00
21980;BME280;11154;48.558;9.234;2022-09-12T07:39:31;97596.53;;;14.83;100.00
21980;BME280;11154;48.558;9.234;2022-09-12T07:41:33;97591.84;;;14.85;100.00
21980;BME280;11154;48.558;9.234;2022-09-12T07:43:34;97587.13;;;14.87;100.00
21980;BME280;11154;48.558;9.234;2022-09-12T07:45:37;97588.59;;;14.89;100.00
21980;BME280;11154;48.558;9.234;2022-09-12T07:47:41;97589.13;;;14.99;100.00
21980;BME280;11154;48.558;9.234;2022-09-12T07:49:42;97594.94;;;15.03;100.00
21980;BME280;11154;48.558;9.234;2022-09-12T07:51:44;97594.94;;;15.03;100.00
21980;BME280;11154;48.558;9.234;2022-09-12T07:53:46;97590.50;;;15.10;100.00
21980;BME280;11154;48.558;9.234;2022-09-12T07:55:52;97584.34;;;15.09;100.00
21980;BME280;11154;48.558;9.234;2022-09-12T07:57:54;97588.47;;;15.12;100.00
21980;BME280;11154;48.558;9.234;2022-09-12T07:59:55;97585.78;;;15.26;100.00
21980;BME280;11154;48.558;9.234;2022-09-12T08:01:58;97582.91;;;15.27;100.00
21980;BME280;11154;48.558;9.234;2022-09-12T08:04:00;97584.38;;;15.30;100.00
21980;BME280;11154;48.558;9.234;2022-09-12T08:06:05;97585.22;;;15.51;100.00
21980;BME280;11154;48.558;9.234;2022-09-12T08:08:08;97587.03;;;15.44;100.00
21980;BME280;11154;48.558;9.234;2022-09-12T08:10:10;97577.69;;;15.40;100.00
21980;BME280;11154;48.558;9.234;2022-09-12T08:12:11;97579.25;;;15.49;100.00
21980;BME280;11154;48.558;9.234;2022-09-12T08:14:14;97572.28;;;15.34;100.00
21980;BME280;11154;48.558;9.234;2022-09-12T08:16:19;97582.34;;;15.32;100.00
21980;BME280;11154;48.558;9.234;2022-09-12T08:18:22;97578.34;;;15.42;100.00
21980;BME280;11154;48.558;9.234;2022-09-12T08:20:24;97577.69;;;15.40;100.00
21980;BME280;11154;48.558;9.234;2022-09-12T08:22:26;97573.25;;;15.47;100.00
21980;BME280;11154;48.558;9.234;2022-09-12T08:24:27;97579.88;;;15.51;100.00
21980;BME280;11154;48.558;9.234;2022-09-12T08:26:29;97573.50;;;15.52;100.00
21980;BME280;11154;48.558;9.234;2022-09-12T08:28:32;97576.84;;;15.75;100.00
21980;BME280;11154;48.558;9.234;2022-09-12T08:30:34;97571.00;;;15.92;100.00
21980;BME280;11154;48.558;9.234;2022-09-12T08:32:35;97566.78;;;16.04;100.00
21980;BME280;11154;48.558;9.234;2022-09-12T08:34:38;97570.19;;;16.19;100.00
21980;BME280;11154;48.558;9.234;2022-09-12T08:36:40;97567.19;;;16.29;100.00
21980;BME280;11154;48.558;9.234;2022-09-12T08:38:44;97569.59;;;16.45;100.00
21980;BME280;11154;48.558;9.234;2022-09-12T08:40:49;97565.34;;;16.57;100.00
21980;BME280;11154;48.558;9.234;2022-09-12T08:43:00;97563.22;;;16.52;100.00
21980;BME280;11154;48.558;9.234;2022-09-12T08:45:15;97567.59;;;16.60;100.00
21980;BME280;11154;48.558;9.234;2022-09-12T08:47:21;97561.50;;;16.72;100.00
21980;BME280;11154;48.558;9.234;2022-09-12T08:49:28;97564.91;;;16.93;100.00
21980;BME280;11154;48.558;9.234;2022-09-12T08:51:34;97565.13;;;16.98;100.00
21980;BME280;11154;48.558;9.234;2022-09-12T08:53:36;97561.03;;;17.02;100.00
21980;BME280;11154;48.558;9.234;2022-09-12T08:55:41;97561.31;;;17.20;100.00
21980;BME280;11154;48.558;9.234;2022-09-12T08:57:43;97550.13;;;17.23;100.00
21980;BME280;11154;48.558;9.234;2022-09-12T08:59:45;97552.25;;;17.28;100.00
21980;BME280;11154;48.558;9.234;2022-09-12T09:01:49;97555.38;;;17.31;100.00
21980;BME280;11154;48.558;9.234;2022-09-12T09:04:09;97556.69;;;17.48;100.00
21980;BME280;11154;48.558;9.234;2022-09-12T09:09:02;97548.81;;;17.53;100.00
21980;BME280;11154;48.558;9.234;2022-09-12T09:11:17;97553.38;;;17.59;100.00
21980;BME280;11154;48.558;9.234;2022-09-12T09:13:32;97547.81;;;17.67;100.00
21980;BME280;11154;48.558;9.234;2022-09-12T09:16:00;97545.56;;;17.90;100.00
21980;BME280;11154;48.558;9.234;2022-09-12T09:18:11;97549.91;;;17.97;100.00
21980;BME280;11154;48.558;9.234;2022-09-12T09:20:21;97550.72;;;18.04;100.00
21980;BME280;11154;48.558;9.234;2022-09-12T09:22:31;97543.69;;;18.16;100.00
21980;BME280;11154;48.558;9.234;2022-09-12T09:24:40;97550.13;;;18.34;100.00
21980;BME280;11154;48.558;9.234;2022-09-12T09:26:45;97538.09;;;18.50;100.00
21980;BME280;11154;48.558;9.234;2022-09-12T09:28:52;97545.97;;;18.51;100.00
21980;BME280;11154;48.558;9.234;2022-09-12T09:30:56;97551.09;;;18.72;100.00
21980;BME280;11154;48.558;9.234;2022-09-12T09:33:00;97544.81;;;18.91;100.00
21980;BME280;11154;48.558;9.234;2022-09-12T09:35:13;97551.44;;;18.95;100.00
21980;BME280;11154;48.558;9.234;2022-09-12T09:37:19;97540.84;;;19.13;100.00
21980;BME280;11154;48.558;9.234;2022-09-12T09:39:33;97544.78;;;19.10;100.00
21980;BME280;11154;48.558;9.234;2022-09-12T09:41:49;97540.59;;;19.21;100.00
21980;BME280;11154;48.558;9.234;2022-09-12T09:43:55;97541.84;;;19.18;100.00
21980;BME280;11154;48.558;9.234;2022-09-12T09:45:57;97539.47;;;19.35;100.00
21980;BME280;11154;48.558;9.234;2022-09-12T09:48:03;97534.47;;;19.45;100.00
21980;BME280;11154;48.558;9.234;2022-09-12T09:50:15;97545.34;;;19.62;100.00
21980;BME280;11154;48.558;9.234;2022-09-12T09:52:20;97541.31;;;19.71;100.00
21980;BME280;11154;48.558;9.234;2022-09-12T09:54:28;97530.81;;;19.63;100.00
21980;BME280;11154;48.558;9.234;2022-09-12T09:56:35;97529.94;;;19.69;100.00
21980;BME280;11154;48.558;9.234;2022-09-12T09:58:38;97533.22;;;19.71;100.00
21980;BME280;11154;48.558;9.234;2022-09-12T10:00:41;97531.31;;;19.78;100.00
21980;BME280;11154;48.558;9.234;2022-09-12T10:03:15;97526.88;;;19.90;100.00
21980;BME280;11154;48.558;9.234;2022-09-12T10:05:22;97530.00;;;20.18;100.00
21980;BME280;11154;48.558;9.234;2022-09-12T10:07:25;97528.81;;;20.14;100.00
21980;BME280;11154;48.558;9.234;2022-09-12T10:09:28;97525.91;;;20.09;100.00
21980;BME280;11154;48.558;9.234;2022-09-12T10:11:32;97522.06;;;20.23;100.00
21980;BME280;11154;48.558;9.234;2022-09-12T10:13:38;97528.69;;;20.27;100.00
21980;BME280;11154;48.558;9.234;2022-09-12T10:15:54;97523.69;;;20.48;100.00
21980;BME280;11154;48.558;9.234;2022-09-12T10:17:56;97516.78;;;20.52;100.00
21980;BME280;11154;48.558;9.234;2022-09-12T10:19:59;97523.38;;;20.56;99.83
21980;BME280;11154;48.558;9.234;2022-09-12T10:22:01;97524.22;;;20.57;99.02
21980;BME280;11154;48.558;9.234;2022-09-12T10:24:15;97521.06;;;20.60;96.45
21980;BME280;11154;48.558;9.234;2022-09-12T10:26:21;97513.34;;;20.63;93.94
21980;BME280;11154;48.558;9.234;2022-09-12T10:28:30;97522.81;;;20.72;92.55
21980;BME280;11154;48.558;9.234;2022-09-12T10:30:34;97527.16;;;20.98;97.29
21980;BME280;11154;48.558;9.234;2022-09-12T10:32:38;97518.34;;;20.84;89.86
21980;BME280;11154;48.558;9.234;2022-09-12T10:34:42;97517.91;;;20.87;90.29
21980;BME280;11154;48.558;9.234;2022-09-12T10:36:44;97505.53;;;20.98;88.30
21980;BME280;11154;48.558;9.234;2022-09-12T10:38:51;97513.41;;;20.99;89.01
21980;BME280;11154;48.558;9.234;2022-09-12T10:40:55;97508.25;;;21.09;87.47
21980;BME280;11154;48.558;9.234;2022-09-12T10:42:59;97506.00;;;21.24;87.69
21980;BME280;11154;48.558;9.234;2022-09-12T10:45:01;97507.97;;;21.17;83.74
21980;BME280;11154;48.558;9.234;2022-09-12T10:47:21;97514.03;;;21.12;84.34
21980;BME280;11154;48.558;9.234;2022-09-12T10:49:26;97510.28;;;21.13;83.61
21980;BME280;11154;48.558;9.234;2022-09-12T10:51:28;97514.34;;;21.22;84.74
21980;BME280;11154;48.558;9.234;2022-09-12T10:53:38;97520.50;;;21.29;85.17
21980;BME280;11154;48.558;9.234;2022-09-12T10:55:53;97514.25;;;21.29;83.67
21980;BME280;11154;48.558;9.234;2022-09-12T10:58:16;97502.88;;;21.38;81.97